Time;durP1;ratioP1;P1;durP2;ratioP2;P2;SDS_P1;SDS_P2;PMS_P1;PMS_P2;Temp;Humidity;BMP_temperature;BMP_pressure;BME280_temperature;BME280_humidity;BME280_pressure;Samples;Min_cycle;Max_cycle;Signal;HPM_P1;HPM_P2
2021/11/30 00:00:14;;;;;;;;;;;;;;;20.02;26.32;95269.53;1040243;28;1312;-61
2021/11/30 00:00:44;;;;;;;;;;;;;;;20.01;26.20;95262.69;1036124;28;1061;-61
2021/11/30 00:01:15;;;;;;;;;;;;;;;20.01;25.85;95269.84;1036005;28;1112;-61
2021/11/30 00:01:45;;;;;;;;;;;;;;;20.01;25.96;95269.84;1040252;28;1639;-61
2021/11/30 00:02:16;;;;;;;;;;;;;;;20.01;25.87;95272.47;1039299;28;2777;-61
2021/11/30 00:02:48;;;;;;;;;;;;;;;20.01;25.87;95277.72;1044451;28;1103;-61
2021/11/30 00:03:18;;;;;;;;;;;;;;;20.00;25.92;95263.00;1043048;28;1589;-61
2021/11/30 00:03:48;;;;;;;;;;;;;;;20.01;26.26;95269.84;1043989;28;1061;-61
2021/11/30 00:04:19;;;;;;;;;;;;;;;19.99;26.07;95272.72;1044550;28;1906;-61
2021/11/30 00:04:49;;;;;;;;;;;;;;;20.00;26.07;95270.88;1044681;28;1017;-61
2021/11/30 00:05:19;;;;;;;;;;;;;;;19.99;26.08;95271.97;1044664;28;1115;-61
2021/11/30 00:05:50;;;;;;;;;;;;;;;19.98;25.65;95268.53;1044124;28;1033;-61
2021/11/30 00:06:20;;;;;;;;;;;;;;;19.98;26.00;95270.38;1043814;28;1605;-61
2021/11/30 00:06:50;;;;;;;;;;;;;;;19.97;25.92;95266.19;1044789;28;1169;-61
2021/11/30 00:07:21;;;;;;;;;;;;;;;19.98;25.77;95273.81;1042203;28;1906;-61
2021/11/30 00:07:54;;;;;;;;;;;;;;;19.97;25.93;95271.47;1044943;28;1111;-61
2021/11/30 00:08:28;;;;;;;;;;;;;;;19.96;26.00;95275.94;1044626;28;1169;-61
2021/11/30 00:09:10;;;;;;;;;;;;;;;19.96;25.96;95275.13;1043521;28;1912;-61
2021/11/30 00:10:44;;;;;;;;;;;;;;;19.97;25.79;95282.75;1043321;28;1193;-61
2021/11/30 00:11:15;;;;;;;;;;;;;;;19.96;26.04;95281.19;1043975;28;2258;-61
2021/11/30 00:11:45;;;;;;;;;;;;;;;19.98;26.06;95278.28;1047818;28;1036;-61
2021/11/30 00:12:16;;;;;;;;;;;;;;;19.97;25.93;95276.72;1043527;28;1871;-61
2021/11/30 00:12:47;;;;;;;;;;;;;;;19.98;25.88;95273.00;1044845;28;1052;-61
2021/11/30 00:13:18;;;;;;;;;;;;;;;19.98;25.93;95283.53;1044357;28;1075;-61
2021/11/30 00:13:49;;;;;;;;;;;;;;;19.98;25.85;95279.06;1044217;28;1045;-61
2021/11/30 00:14:19;;;;;;;;;;;;;;;19.98;25.95;95283.53;1043142;28;1660;-61
2021/11/30 00:14:50;;;;;;;;;;;;;;;19.96;25.85;95280.41;1044133;28;1489;-61
2021/11/30 00:15:20;;;;;;;;;;;;;;;19.96;25.78;95285.66;1043635;28;2151;-61
2021/11/30 00:15:52;;;;;;;;;;;;;;;19.97;26.04;95287.25;1044039;28;969;-61
2021/11/30 00:16:22;;;;;;;;;;;;;;;19.97;25.88;95279.34;1044478;28;1138;-61
2021/11/30 00:16:52;;;;;;;;;;;;;;;19.97;25.88;95292.50;1043283;28;2234;-61
2021/11/30 00:17:23;;;;;;;;;;;;;;;19.96;25.87;95285.66;1039392;28;2319;-61
2021/11/30 00:17:53;;;;;;;;;;;;;;;19.96;25.96;95280.41;1040097;28;1018;-61
2021/11/30 00:18:24;;;;;;;;;;;;;;;19.96;26.43;95283.81;1040297;28;1191;-61
2021/11/30 00:18:54;;;;;;;;;;;;;;;19.96;26.59;95281.19;1044094;28;1048;-61
2021/11/30 00:19:25;;;;;;;;;;;;;;;19.96;26.20;95288.28;1044529;28;1118;-61
2021/11/30 00:19:55;;;;;;;;;;;;;;;19.95;26.10;95284.06;1044520;28;1052;-62
2021/11/30 00:20:25;;;;;;;;;;;;;;;19.96;26.16;95288.28;1044714;28;1128;-61
2021/11/30 00:20:56;;;;;;;;;;;;;;;19.96;26.16;95290.91;1044132;28;1079;-61
2021/11/30 00:21:26;;;;;;;;;;;;;;;19.96;26.02;95294.34;1044849;28;1324;-61
2021/11/30 00:21:56;;;;;;;;;;;;;;;19.96;26.09;95286.44;1044440;28;1099;-61
2021/11/30 00:22:27;;;;;;;;;;;;;;;19.97;26.18;95284.59;1043418;28;1836;-61
2021/11/30 00:22:57;;;;;;;;;;;;;;;19.96;25.80;95291.72;1044640;28;1162;-61
2021/11/30 00:23:27;;;;;;;;;;;;;;;19.96;25.88;95290.91;1043545;28;1592;-62
2021/11/30 00:23:58;;;;;;;;;;;;;;;19.95;25.86;95294.59;1044448;28;1148;-61
2021/11/30 00:24:29;;;;;;;;;;;;;;;19.95;25.89;95281.44;1044409;28;1902;-61
2021/11/30 00:25:00;;;;;;;;;;;;;;;19.95;25.94;95294.59;1043601;28;2227;-61
2021/11/30 00:25:30;;;;;;;;;;;;;;;19.95;25.94;95292.75;1044835;28;1111;-61
2021/11/30 00:26:01;;;;;;;;;;;;;;;19.96;26.20;95290.91;1044384;28;1100;-62
2021/11/30 00:26:32;;;;;;;;;;;;;;;19.94;25.97;95288.56;1044491;28;1335;-61
2021/11/30 00:27:02;;;;;;;;;;;;;;;19.94;25.96;95287.78;1044624;28;1139;-61
2021/11/30 00:27:32;;;;;;;;;;;;;;;19.95;26.15;95291.97;1042487;28;1937;-61
2021/11/30 00:28:03;;;;;;;;;;;;;;;19.95;26.35;95292.75;1044763;28;1057;-62
2021/11/30 00:28:33;;;;;;;;;;;;;;;19.96;26.16;95290.91;1044432;28;926;-61
2021/11/30 00:29:04;;;;;;;;;;;;;;;19.95;26.45;95290.13;1043794;28;1291;-61
2021/11/30 00:29:34;;;;;;;;;;;;;;;19.96;26.39;95293.56;1044056;28;767;-61
2021/11/30 00:30:05;;;;;;;;;;;;;;;19.97;26.17;95287.25;1044123;28;1025;-61
2021/11/30 00:30:35;;;;;;;;;;;;;;;19.95;26.17;95290.13;1044222;28;1213;-62
2021/11/30 00:31:05;;;;;;;;;;;;;;;19.96;26.36;95293.56;1041858;28;1454;-61
2021/11/30 00:31:36;;;;;;;;;;;;;;;19.96;25.94;95296.19;1044870;28;1146;-61
2021/11/30 00:32:06;;;;;;;;;;;;;;;19.95;25.90;95287.50;1044264;28;1080;-61
2021/11/30 00:32:37;;;;;;;;;;;;;;;19.95;26.13;95286.72;1043446;28;2262;-61
2021/11/30 00:33:08;;;;;;;;;;;;;;;19.96;26.15;95301.44;1044480;28;1097;-61
2021/11/30 00:33:38;;;;;;;;;;;;;;;19.96;25.92;95298.81;1043771;28;1457;-62
2021/11/30 00:34:09;;;;;;;;;;;;;;;19.95;26.03;95294.59;1043864;28;1092;-61
2021/11/30 00:34:39;;;;;;;;;;;;;;;19.95;26.00;95299.88;1044284;28;1085;-61
2021/11/30 00:35:09;;;;;;;;;;;;;;;19.94;26.07;95288.56;1044174;28;1187;-61
2021/11/30 00:35:40;;;;;;;;;;;;;;;19.95;26.09;95297.22;1044808;28;1225;-61
2021/11/30 00:36:10;;;;;;;;;;;;;;;19.96;26.02;95293.56;1041039;28;1811;-61
2021/11/30 00:36:40;;;;;;;;;;;;;;;19.94;26.15;95296.47;1044356;28;1327;-61
2021/11/30 00:37:11;;;;;;;;;;;;;;;19.94;26.33;95299.09;1044183;28;1653;-61
2021/11/30 00:37:41;;;;;;;;;;;;;;;19.94;26.17;95296.47;1043727;28;1491;-61
2021/11/30 00:38:16;;;;;;;;;;;;;;;19.94;26.18;95296.47;1044377;28;1146;-62
2021/11/30 00:38:46;;;;;;;;;;;;;;;19.95;26.16;95299.88;1043965;28;1045;-61
2021/11/30 00:39:17;;;;;;;;;;;;;;;19.93;25.94;95300.16;1042481;28;1150;-61
2021/11/30 00:39:47;;;;;;;;;;;;;;;19.93;25.96;95296.72;1044708;28;1061;-61
2021/11/30 00:40:17;;;;;;;;;;;;;;;19.94;25.87;95298.31;1044697;28;1183;-61
2021/11/30 00:40:48;;;;;;;;;;;;;;;19.94;26.03;95290.41;1042866;28;1150;-62
2021/11/30 00:41:18;;;;;;;;;;;;;;;19.94;25.89;95300.94;1044662;28;1103;-61
2021/11/30 00:41:50;;;;;;;;;;;;;;;19.94;26.05;95298.31;1044629;28;1051;-62
2021/11/30 00:42:23;;;;;;;;;;;;;;;19.93;26.21;95292.25;1043400;28;1832;-61
2021/11/30 00:42:56;;;;;;;;;;;;;;;19.92;25.91;95297.81;1044501;28;1053;-62
2021/11/30 00:43:32;;;;;;;;;;;;;;;19.93;26.13;95302.78;1044136;28;1159;-61
2021/11/30 00:44:03;;;;;;;;;;;;;;;19.92;25.87;95301.22;1041660;28;871;-61
2021/11/30 00:44:35;;;;;;;;;;;;;;;19.93;26.46;95302.00;1044031;28;1977;-61
2021/11/30 00:45:07;;;;;;;;;;;;;;;19.92;25.79;95300.44;1043915;28;1049;-61
2021/11/30 00:46:41;;;;;;;;;;;;;;;19.93;26.08;95302.00;1043917;28;1508;-62
2021/11/30 00:47:19;;;;;;;;;;;;;;;19.92;26.17;95303.84;1039595;28;1073;-61
2021/11/30 00:47:51;;;;;;;;;;;;;;;19.92;26.34;95306.50;1042539;28;1682;-61
2021/11/30 00:48:22;;;;;;;;;;;;;;;19.93;26.29;95307.25;1042873;28;1112;-62
2021/11/30 00:48:53;;;;;;;;;;;;;;;19.93;26.46;95307.25;1041494;28;1044;-61
2021/11/30 00:49:25;;;;;;;;;;;;;;;19.93;25.75;95309.88;1043840;28;1061;-61
2021/11/30 00:49:56;;;;;;;;;;;;;;;19.92;26.01;95295.19;1044155;28;1147;-61
2021/11/30 00:50:26;;;;;;;;;;;;;;;19.91;25.84;95299.66;1044307;28;1127;-61
2021/11/30 00:50:59;;;;;;;;;;;;;;;19.91;25.94;95304.91;1043271;28;1221;-61
2021/11/30 00:51:32;;;;;;;;;;;;;;;19.92;26.08;95303.06;1043337;28;1791;-62
2021/11/30 00:52:02;;;;;;;;;;;;;;;19.92;26.36;95308.31;1043671;28;1875;-60
2021/11/30 00:52:32;;;;;;;;;;;;;;;19.92;26.40;95305.69;1043651;28;1897;-61
2021/11/30 00:53:03;;;;;;;;;;;;;;;19.92;26.32;95306.50;1044895;28;1302;-62
2021/11/30 00:53:34;;;;;;;;;;;;;;;19.92;26.30;95305.69;1041994;28;1650;-61
2021/11/30 00:54:07;;;;;;;;;;;;;;;19.91;26.33;95312.00;1044185;28;1219;-61
2021/11/30 00:54:37;;;;;;;;;;;;;;;19.92;26.37;95305.69;1044746;28;1121;-61
2021/11/30 00:55:07;;;;;;;;;;;;;;;19.91;26.40;95314.63;1044280;28;1073;-62
2021/11/30 00:55:38;;;;;;;;;;;;;;;19.91;26.20;95312.81;1044085;28;1130;-61
2021/11/30 00:56:08;;;;;;;;;;;;;;;19.92;26.13;95317.00;1044162;28;1057;-61
2021/11/30 00:56:39;;;;;;;;;;;;;;;19.92;26.34;95313.59;1044779;28;1348;-61
2021/11/30 00:57:10;;;;;;;;;;;;;;;19.91;26.23;95318.06;1044240;28;1055;-61
2021/11/30 00:57:41;;;;;;;;;;;;;;;19.91;25.89;95310.16;1042705;28;1926;-62
2021/11/30 00:58:11;;;;;;;;;;;;;;;19.90;26.13;95313.88;1044340;28;1206;-61
2021/11/30 00:58:41;;;;;;;;;;;;;;;19.90;26.18;95316.50;1044214;28;1103;-61
2021/11/30 00:59:12;;;;;;;;;;;;;;;19.91;26.33;95319.91;1043710;28;1164;-61
2021/11/30 00:59:42;;;;;;;;;;;;;;;19.91;26.09;95322.53;1044347;28;1189;-61
2021/11/30 01:00:14;;;;;;;;;;;;;;;19.91;26.16;95317.28;1044490;28;1083;-62
2021/11/30 01:00:44;;;;;;;;;;;;;;;19.90;26.09;95323.59;1044423;28;1150;-61
2021/11/30 01:01:15;;;;;;;;;;;;;;;19.91;25.98;95322.53;1044618;28;1075;-61
2021/11/30 01:01:45;;;;;;;;;;;;;;;19.90;26.18;95318.34;1043519;28;2006;-61
2021/11/30 01:02:15;;;;;;;;;;;;;;;19.89;25.57;95328.06;1044292;28;1154;-62
2021/11/30 01:02:46;;;;;;;;;;;;;;;19.90;26.45;95319.13;1043315;28;2253;-61
2021/11/30 01:03:16;;;;;;;;;;;;;;;19.90;25.82;95318.34;1041991;28;1624;-61
2021/11/30 01:03:46;;;;;;;;;;;;;;;19.89;26.00;95322.03;1044133;28;1010;-61
2021/11/30 01:04:17;;;;;;;;;;;;;;;19.89;26.10;95322.81;1044205;28;1977;-61
2021/11/30 01:04:47;;;;;;;;;;;;;;;19.89;26.40;95322.81;1037776;28;2389;-61
2021/11/30 01:05:18;;;;;;;;;;;;;;;19.90;26.23;95328.88;1042063;28;1516;-61
2021/11/30 01:05:48;;;;;;;;;;;;;;;19.89;25.96;95322.03;1043407;28;1411;-61
2021/11/30 01:06:18;;;;;;;;;;;;;;;19.90;26.13;95324.41;1043983;28;1139;-61
2021/11/30 01:06:49;;;;;;;;;;;;;;;19.89;26.18;95328.06;1044039;28;1229;-61
2021/11/30 01:07:20;;;;;;;;;;;;;;;19.89;26.16;95327.28;1044078;28;1158;-61
2021/11/30 01:07:50;;;;;;;;;;;;;;;19.89;26.34;95320.19;1043598;28;1898;-61
2021/11/30 01:08:21;;;;;;;;;;;;;;;19.88;25.91;95331.00;1042810;28;1451;-61
2021/11/30 01:08:51;;;;;;;;;;;;;;;19.89;25.89;95329.91;1044165;28;1621;-61
2021/11/30 01:09:21;;;;;;;;;;;;;;;19.89;26.11;95332.53;1043678;28;1095;-61
2021/11/30 01:09:52;;;;;;;;;;;;;;;19.88;26.25;95329.16;1044235;28;1101;-61
2021/11/30 01:10:22;;;;;;;;;;;;;;;19.87;25.96;95332.84;1044667;28;1138;-61
2021/11/30 01:10:53;;;;;;;;;;;;;;;19.87;26.05;95332.84;1044486;28;989;-61
2021/11/30 01:11:23;;;;;;;;;;;;;;;19.87;25.98;95335.47;1044139;28;1146;-62
2021/11/30 01:11:53;;;;;;;;;;;;;;;19.87;26.08;95330.19;1044036;28;1009;-61
2021/11/30 01:12:25;;;;;;;;;;;;;;;19.87;25.76;95332.03;1043928;28;1198;-61
2021/11/30 01:12:55;;;;;;;;;;;;;;;19.87;26.11;95338.09;1043716;28;1936;-61
2021/11/30 01:13:28;;;;;;;;;;;;;;;19.87;26.24;95342.56;1042414;28;1642;-61
2021/11/30 01:13:58;;;;;;;;;;;;;;;19.88;25.99;95338.88;1044021;28;1296;-61
2021/11/30 01:14:28;;;;;;;;;;;;;;;19.87;26.14;95334.66;1043710;28;1080;-62
2021/11/30 01:14:58;;;;;;;;;;;;;;;19.87;25.68;95337.31;1043817;28;1019;-61
2021/11/30 01:15:29;;;;;;;;;;;;;;;19.87;25.79;95342.56;1044145;28;1090;-61
2021/11/30 01:16:00;;;;;;;;;;;;;;;19.88;26.92;95337.03;1043618;28;1620;-61
2021/11/30 01:16:30;;;;;;;;;;;;;;;19.87;26.00;95334.66;1041978;28;1354;-61
2021/11/30 01:17:01;;;;;;;;;;;;;;;19.86;25.89;95339.16;1042036;28;2360;-61
2021/11/30 01:17:31;;;;;;;;;;;;;;;19.88;26.27;95341.50;1043084;28;2057;-61
2021/11/30 01:18:01;;;;;;;;;;;;;;;19.87;26.07;95339.94;1043462;28;2090;-61
2021/11/30 01:18:32;;;;;;;;;;;;;;;19.86;26.13;95339.16;1044575;28;1146;-61
2021/11/30 01:19:03;;;;;;;;;;;;;;;19.85;25.88;95339.44;1044311;28;1092;-61
2021/11/30 01:19:33;;;;;;;;;;;;;;;19.86;25.93;95343.63;1044148;28;1119;-60
2021/11/30 01:20:04;;;;;;;;;;;;;;;19.86;26.13;95343.63;1043963;28;1198;-61
2021/11/30 01:20:35;;;;;;;;;;;;;;;19.85;26.00;95337.59;1044512;28;1095;-61
2021/11/30 01:21:06;;;;;;;;;;;;;;;19.86;25.64;95338.38;1043939;28;1064;-62
2021/11/30 01:21:36;;;;;;;;;;;;;;;19.85;26.04;95337.59;1043323;28;2040;-61
2021/11/30 01:22:07;;;;;;;;;;;;;;;19.85;25.86;95342.06;1044278;28;1103;-61
2021/11/30 01:22:38;;;;;;;;;;;;;;;19.85;25.96;95342.06;1044456;28;1087;-61
2021/11/30 01:23:08;;;;;;;;;;;;;;;19.85;25.78;95342.06;1043279;28;2105;-61
2021/11/30 01:23:38;;;;;;;;;;;;;;;19.85;26.13;95339.44;1043864;28;1021;-61
2021/11/30 01:24:09;;;;;;;;;;;;;;;19.85;25.90;95342.84;1044243;28;1029;-61
2021/11/30 01:24:39;;;;;;;;;;;;;;;19.84;25.78;95329.97;1044362;28;1906;-61
2021/11/30 01:25:09;;;;;;;;;;;;;;;19.84;26.03;95335.25;1043485;28;1560;-62
2021/11/30 01:25:40;;;;;;;;;;;;;;;19.84;25.79;95343.13;1044353;28;1087;-61
2021/11/30 01:26:10;;;;;;;;;;;;;;;19.84;26.14;95335.25;1042915;28;1025;-61
2021/11/30 01:26:40;;;;;;;;;;;;;;;19.85;26.03;95337.59;1044478;28;1300;-61
2021/11/30 01:27:11;;;;;;;;;;;;;;;19.85;26.43;95336.78;1044587;28;1024;-61
2021/11/30 01:27:41;;;;;;;;;;;;;;;19.83;26.08;95334.44;1044459;28;1118;-61
2021/11/30 01:28:11;;;;;;;;;;;;;;;19.83;25.92;95339.72;1043323;28;2015;-61
2021/11/30 01:28:42;;;;;;;;;;;;;;;19.84;26.29;95335.25;1044609;28;1111;-62
2021/11/30 01:29:13;;;;;;;;;;;;;;;19.84;26.15;95340.50;1043848;28;1107;-62
2021/11/30 01:29:43;;;;;;;;;;;;;;;19.84;26.03;95335.25;1044429;28;1229;-61
2021/11/30 01:30:14;;;;;;;;;;;;;;;19.84;25.87;95341.28;1043356;28;2499;-61
2021/11/30 01:30:44;;;;;;;;;;;;;;;19.85;25.78;95334.16;1044417;28;1053;-61
2021/11/30 01:31:14;;;;;;;;;;;;;;;19.83;25.73;95339.72;1044275;28;1323;-61
2021/11/30 01:31:45;;;;;;;;;;;;;;;19.84;26.20;95340.50;1044125;28;1194;-61
2021/11/30 01:32:15;;;;;;;;;;;;;;;19.85;26.11;95342.06;1043742;28;1229;-61
2021/11/30 01:32:46;;;;;;;;;;;;;;;19.84;26.12;95337.88;1039199;28;1772;-61
2021/11/30 01:33:16;;;;;;;;;;;;;;;19.84;26.01;95340.50;1041904;28;2386;-61
2021/11/30 01:33:46;;;;;;;;;;;;;;;19.85;26.04;95344.69;1043432;28;1068;-61
2021/11/30 01:34:17;;;;;;;;;;;;;;;19.83;26.00;95347.59;1039691;28;1447;-61
2021/11/30 01:34:47;;;;;;;;;;;;;;;19.83;26.18;95352.06;1043719;28;1525;-61
2021/11/30 01:35:17;;;;;;;;;;;;;;;19.83;25.90;95350.22;1040216;28;998;-61
2021/11/30 01:35:49;;;;;;;;;;;;;;;19.84;26.28;95343.13;1040386;28;1100;-61
2021/11/30 01:36:19;;;;;;;;;;;;;;;19.84;26.13;95351.81;1040761;28;1238;-61
2021/11/30 01:36:49;;;;;;;;;;;;;;;19.84;25.98;95351.03;1038785;28;1305;-61
2021/11/30 01:37:20;;;;;;;;;;;;;;;19.82;25.96;95353.94;1044992;28;1197;-61
2021/11/30 01:37:50;;;;;;;;;;;;;;;19.83;26.15;95342.34;1045411;28;1111;-61
2021/11/30 01:38:21;;;;;;;;;;;;;;;19.84;26.35;95345.75;1042101;28;1984;-61
2021/11/30 01:38:51;;;;;;;;;;;;;;;19.83;25.98;95352.06;1042756;28;1021;-61
2021/11/30 01:39:22;;;;;;;;;;;;;;;19.83;26.08;95339.72;1045177;28;1173;-61
2021/11/30 01:39:52;;;;;;;;;;;;;;;19.83;26.46;95344.97;1045262;28;1065;-61
2021/11/30 01:40:23;;;;;;;;;;;;;;;19.84;26.27;95345.75;1040719;28;1466;-61
2021/11/30 01:40:54;;;;;;;;;;;;;;;19.84;26.35;95351.03;1040693;28;1114;-61
2021/11/30 01:41:25;;;;;;;;;;;;;;;19.84;26.25;95343.13;1040782;28;1179;-61
2021/11/30 01:41:57;;;;;;;;;;;;;;;19.84;26.24;95341.28;1037256;28;1093;-60
2021/11/30 01:42:28;;;;;;;;;;;;;;;19.83;26.16;95352.88;1044433;28;1075;-61
2021/11/30 01:43:00;;;;;;;;;;;;;;;19.84;26.29;95351.03;1044981;28;1124;-61
2021/11/30 01:43:50;;;;;;;;;;;;;;;19.83;26.55;95354.69;1040577;28;2243;-61
2021/11/30 01:44:32;;;;;;;;;;;;;;;19.83;26.21;95355.50;1041465;28;1977;-61
2021/11/30 01:45:07;;;;;;;;;;;;;;;19.83;26.39;95350.22;1044517;28;1056;-61
2021/11/30 01:46:13;;;;;;;;;;;;;;;19.83;25.96;95352.06;1042001;28;1123;-61
2021/11/30 01:49:34;;;;;;;;;;;;;;;19.83;25.88;95354.69;1043139;28;1150;-61
2021/11/30 01:50:07;;;;;;;;;;;;;;;19.82;26.28;95358.41;1044188;28;1332;-61
2021/11/30 01:50:38;;;;;;;;;;;;;;;19.83;26.20;95352.06;1044873;28;1146;-61
2021/11/30 01:51:08;;;;;;;;;;;;;;;19.82;25.84;95353.16;1044127;28;1096;-61
2021/11/30 01:51:38;;;;;;;;;;;;;;;19.81;26.20;95347.09;1043122;28;1131;-61
2021/11/30 01:52:09;;;;;;;;;;;;;;;19.81;26.04;95348.94;1044898;28;1069;-62
2021/11/30 01:52:39;;;;;;;;;;;;;;;19.81;25.90;95343.69;1045433;28;1033;-61
2021/11/30 01:53:10;;;;;;;;;;;;;;;19.81;26.08;95349.72;1045211;28;2062;-62
2021/11/30 01:53:41;;;;;;;;;;;;;;;19.81;26.23;95343.69;1044194;28;1540;-61
2021/11/30 01:54:11;;;;;;;;;;;;;;;19.81;25.95;95351.56;1044464;28;1814;-62
2021/11/30 01:54:43;;;;;;;;;;;;;;;19.81;26.28;95349.72;1045109;28;913;-61
2021/11/30 01:55:14;;;;;;;;;;;;;;;19.81;26.26;95349.72;1044967;28;1143;-61
2021/11/30 01:55:45;;;;;;;;;;;;;;;19.81;25.83;95351.56;1045116;28;1037;-61
2021/11/30 01:56:15;;;;;;;;;;;;;;;19.80;25.85;95345.53;1044113;28;2146;-61
2021/11/30 01:56:46;;;;;;;;;;;;;;;19.80;26.16;95344.75;1041806;28;1598;-61
2021/11/30 01:57:17;;;;;;;;;;;;;;;19.80;26.24;95345.53;1044728;28;1107;-62
2021/11/30 01:57:49;;;;;;;;;;;;;;;19.79;25.94;95343.16;1044973;28;1143;-61
2021/11/30 01:58:19;;;;;;;;;;;;;;;19.80;25.88;95342.13;1043912;28;1966;-61
2021/11/30 01:58:49;;;;;;;;;;;;;;;19.79;26.07;95349.22;1044766;28;891;-61
2021/11/30 01:59:20;;;;;;;;;;;;;;;19.80;26.10;95339.50;1043997;28;1115;-62
2021/11/30 01:59:50;;;;;;;;;;;;;;;19.78;26.13;95347.66;1044950;28;1049;-62
2021/11/30 02:00:21;;;;;;;;;;;;;;;19.78;25.92;95352.13;1043521;28;1059;-61
2021/11/30 02:00:51;;;;;;;;;;;;;;;19.78;26.10;95352.94;1038498;28;2392;-61
2021/11/30 02:01:22;;;;;;;;;;;;;;;19.79;26.29;95351.06;1044544;28;984;-62
2021/11/30 02:01:52;;;;;;;;;;;;;;;19.78;25.89;95346.88;1044450;28;1988;-61
2021/11/30 02:02:23;;;;;;;;;;;;;;;19.77;25.79;95343.47;1043534;28;1596;-61
2021/11/30 02:02:53;;;;;;;;;;;;;;;19.78;26.38;95347.66;1044226;28;1088;-61
2021/11/30 02:03:23;;;;;;;;;;;;;;;19.78;26.20;95352.13;1044313;28;1139;-62
2021/11/30 02:03:54;;;;;;;;;;;;;;;19.78;26.08;95352.94;1044125;28;2339;-61
2021/11/30 02:04:24;;;;;;;;;;;;;;;19.78;26.12;95352.94;1045052;28;1969;-61
2021/11/30 02:04:54;;;;;;;;;;;;;;;19.78;25.92;95342.41;1042847;28;1662;-61
2021/11/30 02:05:25;;;;;;;;;;;;;;;19.77;26.00;95353.97;1041177;28;1457;-61
2021/11/30 02:05:56;;;;;;;;;;;;;;;19.78;25.93;95346.88;1042320;28;2347;-61
2021/11/30 02:06:26;;;;;;;;;;;;;;;19.76;25.86;95344.53;1045047;28;1402;-62
2021/11/30 02:07:02;;;;;;;;;;;;;;;19.76;25.92;95347.16;1045476;28;1049;-61
2021/11/30 02:07:40;;;;;;;;;;;;;;;19.77;26.08;95340.81;1044442;28;1003;-61
2021/11/30 02:08:21;;;;;;;;;;;;;;;19.79;26.24;95348.44;1044763;28;1054;-62
2021/11/30 02:09:01;;;;;;;;;;;;;;;19.76;26.03;95349.78;1039678;28;2024;-61
2021/11/30 02:09:51;;;;;;;;;;;;;;;19.77;26.32;95355.81;1038192;28;1232;-61
2021/11/30 02:10:41;;;;;;;;;;;;;;;19.76;26.06;95347.16;1043975;28;2263;-62
2021/11/30 02:11:16;;;;;;;;;;;;;;;19.76;25.89;95349.00;1045254;28;1446;-62
2021/11/30 02:11:47;;;;;;;;;;;;;;;19.75;25.94;95342.16;1044976;28;1183;-62
2021/11/30 02:12:17;;;;;;;;;;;;;;;19.77;26.01;95350.56;1044699;28;1164;-61
2021/11/30 02:12:48;;;;;;;;;;;;;;;19.75;26.33;95342.94;1045227;28;1048;-62
2021/11/30 02:13:23;;;;;;;;;;;;;;;19.76;26.28;95341.13;1038550;28;1241;-62
2021/11/30 02:14:13;;;;;;;;;;;;;;;19.74;26.14;95346.63;1039034;28;1654;-62
2021/11/30 02:14:52;;;;;;;;;;;;;;;19.74;26.19;95344.00;1040857;28;1091;-61
2021/11/30 02:15:28;;;;;;;;;;;;;;;19.75;26.11;95339.53;1043936;28;1980;-62
2021/11/30 02:16:01;;;;;;;;;;;;;;;19.76;25.99;95338.47;1044548;28;1095;-61
2021/11/30 02:16:51;;;;;;;;;;;;;;;19.74;26.29;95344.00;1039890;28;1407;-61
2021/11/30 02:17:41;;;;;;;;;;;;;;;19.75;25.94;95336.91;1040830;28;1064;-62
2021/11/30 02:18:23;;;;;;;;;;;;;;;19.74;26.16;95335.34;1042600;28;1664;-62
2021/11/30 02:19:02;;;;;;;;;;;;;;;19.75;25.92;95347.41;1044673;28;1174;-61
2021/11/30 02:19:41;;;;;;;;;;;;;;;19.74;26.08;95345.88;1044738;28;1225;-62
2021/11/30 02:20:12;;;;;;;;;;;;;;;19.74;26.19;95338.75;1043552;28;1379;-61
2021/11/30 02:20:46;;;;;;;;;;;;;;;19.74;26.10;95332.72;1039591;28;2388;-61
2021/11/30 02:21:34;;;;;;;;;;;;;;;19.74;26.10;95337.97;1036422;28;1206;-61
2021/11/30 02:22:24;;;;;;;;;;;;;;;19.75;26.02;95331.63;1040843;28;1580;-61
2021/11/30 02:22:56;;;;;;;;;;;;;;;19.74;26.00;95332.72;1044795;28;1142;-62
2021/11/30 02:24:28;;;;;;;;;;;;;;;19.74;26.38;95333.47;1043708;28;1416;-62
2021/11/30 02:24:47;;;;;;;;;;;;;;;19.74;26.44;95335.34;1037640;28;1491;-62
2021/11/30 02:25:37;;;;;;;;;;;;;;;19.74;26.08;95337.97;1042007;28;2118;-61
2021/11/30 02:26:27;;;;;;;;;;;;;;;19.74;26.18;95335.34;1044432;28;1410;-61
2021/11/30 02:26:57;;;;;;;;;;;;;;;19.74;26.21;95336.09;1040502;28;1511;-61
2021/11/30 02:27:27;;;;;;;;;;;;;;;19.74;26.42;95332.72;1036802;28;1140;-62
2021/11/30 02:27:58;;;;;;;;;;;;;;;19.74;25.90;95330.84;1036585;28;1080;-61
2021/11/30 02:28:28;;;;;;;;;;;;;;;19.74;26.12;95332.72;1036561;28;1069;-62
2021/11/30 02:29:18;;;;;;;;;;;;;;;19.75;26.60;95331.63;1041408;28;1224;-61
2021/11/30 02:30:09;;;;;;;;;;;;;;;19.74;26.44;95330.84;1038762;28;1620;-61
2021/11/30 02:30:39;;;;;;;;;;;;;;;19.73;26.22;95337.19;1043748;28;2154;-62
2021/11/30 02:31:10;;;;;;;;;;;;;;;19.73;26.40;95318.78;1043955;28;1437;-62
2021/11/30 02:31:45;;;;;;;;;;;;;;;19.73;25.88;95329.28;1045199;28;1183;-62
2021/11/30 02:32:19;;;;;;;;;;;;;;;19.74;26.36;95335.34;1044645;28;1131;-62
2021/11/30 02:33:09;;;;;;;;;;;;;;;19.74;26.03;95332.72;1044407;28;1124;-62
2021/11/30 02:33:59;;;;;;;;;;;;;;;19.73;26.03;95328.50;1042870;28;1182;-61
2021/11/30 02:34:30;;;;;;;;;;;;;;;19.73;25.95;95324.03;1043879;28;1229;-62
2021/11/30 02:35:01;;;;;;;;;;;;;;;19.73;25.88;95328.50;1042760;28;1592;-61
2021/11/30 02:35:31;;;;;;;;;;;;;;;19.73;26.04;95328.50;1040279;28;1489;-62
2021/11/30 02:36:14;;;;;;;;;;;;;;;19.72;26.15;95332.22;1038155;28;2670;-62
2021/11/30 02:37:22;;;;;;;;;;;;;;;19.71;25.91;95330.63;1044601;28;1110;-61
2021/11/30 02:37:58;;;;;;;;;;;;;;;19.71;25.90;95326.16;1045072;28;1112;-62
2021/11/30 02:38:28;;;;;;;;;;;;;;;19.72;26.22;95332.22;1045059;28;1213;-62
2021/11/30 02:38:59;;;;;;;;;;;;;;;19.72;25.83;95326.94;1044738;28;1053;-62
2021/11/30 02:39:29;;;;;;;;;;;;;;;19.72;26.08;95329.59;1044911;28;1096;-62
2021/11/30 02:39:59;;;;;;;;;;;;;;;19.71;25.95;95330.63;1044543;28;1088;-62
2021/11/30 02:40:30;;;;;;;;;;;;;;;19.71;26.08;95326.16;1044672;28;1181;-62
2021/11/30 02:41:00;;;;;;;;;;;;;;;19.71;25.98;95335.88;1043122;28;2063;-62
2021/11/30 02:41:31;;;;;;;;;;;;;;;19.71;26.52;95323.53;1044595;28;964;-62
2021/11/30 02:42:03;;;;;;;;;;;;;;;19.70;25.96;95327.22;1045035;28;1136;-62
2021/11/30 02:42:33;;;;;;;;;;;;;;;19.71;26.19;95328.78;1044705;28;1241;-61
2021/11/30 02:43:03;;;;;;;;;;;;;;;19.71;26.09;95333.25;1044664;28;1299;-62
2021/11/30 02:43:34;;;;;;;;;;;;;;;19.71;25.90;95328.78;1040609;28;1723;-62
2021/11/30 02:44:04;;;;;;;;;;;;;;;19.71;25.73;95330.63;1043952;28;1065;-61
2021/11/30 02:44:35;;;;;;;;;;;;;;;19.69;26.16;95325.66;1044834;28;1971;-61
2021/11/30 02:45:06;;;;;;;;;;;;;;;19.70;26.09;95329.84;1044636;28;1080;-62
2021/11/30 02:45:36;;;;;;;;;;;;;;;19.70;26.16;95329.84;1045106;28;1004;-62
2021/11/30 02:46:06;;;;;;;;;;;;;;;19.70;26.19;95331.72;1043419;28;2079;-62
2021/11/30 02:46:40;;;;;;;;;;;;;;;19.70;26.16;95319.31;1044392;28;1414;-62
2021/11/30 02:47:12;;;;;;;;;;;;;;;19.70;26.20;95324.56;1043516;28;952;-61
2021/11/30 02:47:42;;;;;;;;;;;;;;;19.70;26.06;95329.06;1045075;28;1164;-62
2021/11/30 02:48:12;;;;;;;;;;;;;;;19.71;26.18;95325.38;1044976;28;1120;-62
2021/11/30 02:48:43;;;;;;;;;;;;;;;19.70;26.26;95324.56;1045004;28;1051;-62
2021/11/30 02:49:17;;;;;;;;;;;;;;;19.70;25.83;95321.19;1044812;28;1159;-62
2021/11/30 02:49:48;;;;;;;;;;;;;;;19.69;26.39;95328.28;1043435;28;1038;-62
2021/11/30 02:50:18;;;;;;;;;;;;;;;19.69;26.05;95322.22;1045162;28;1130;-62
2021/11/30 02:50:51;;;;;;;;;;;;;;;19.68;25.85;95321.44;1044207;28;1053;-61
2021/11/30 02:51:21;;;;;;;;;;;;;;;19.70;26.49;95323.81;1043681;28;2114;-61
2021/11/30 02:51:54;;;;;;;;;;;;;;;19.67;25.86;95330.41;1045905;28;1140;-62
2021/11/30 02:52:26;;;;;;;;;;;;;;;19.68;26.07;95325.94;1043876;28;1476;-62
2021/11/30 02:52:57;;;;;;;;;;;;;;;19.67;26.08;95337.50;1044529;28;1081;-62
2021/11/30 02:53:27;;;;;;;;;;;;;;;19.67;26.12;95330.41;1045027;28;1150;-61
2021/11/30 02:54:00;;;;;;;;;;;;;;;19.68;26.05;95339.09;1045043;28;1046;-62
2021/11/30 02:54:30;;;;;;;;;;;;;;;19.67;25.84;95337.50;1044813;28;1099;-62
2021/11/30 02:55:01;;;;;;;;;;;;;;;19.68;26.50;95331.97;1045080;28;1072;-62
2021/11/30 02:55:31;;;;;;;;;;;;;;;19.68;25.95;95339.09;1044949;28;1154;-61
2021/11/30 02:56:01;;;;;;;;;;;;;;;19.67;26.40;95334.88;1043914;28;2071;-61